Time;durP1;ratioP1;P1;durP2;ratioP2;P2;SDS_P1;SDS_P2;PMS_P1;PMS_P2;Temp;Humidity;BMP_temperature;BMP_pressure;BME280_temperature;BME280_humidity;BME280_pressure;Samples;Min_cycle;Max_cycle;Signal;HPM_P1;HPM_P2
2023/12/11 00:00:07;;;;;;;5.50;4.07;;;0.10;96.90;;;;;;6252621;28;20210;-62
2023/12/11 00:03:08;;;;;;;8.70;3.77;;;0.10;97.00;;;;;;6252495;28;20214;-62
2023/12/11 00:06:10;;;;;;;5.03;2.97;;;0.20;98.00;;;;;;6299194;28;20185;-62
2023/12/11 00:09:11;;;;;;;5.47;3.23;;;0.20;98.40;;;;;;6279058;28;20239;-62
2023/12/11 00:12:12;;;;;;;5.37;3.50;;;0.30;97.50;;;;;;6259367;28;20194;-62
2023/12/11 00:15:13;;;;;;;3.83;3.30;;;0.30;97.70;;;;;;6273362;28;20189;-62
2023/12/11 00:18:13;;;;;;;6.37;3.80;;;0.30;96.80;;;;;;6279088;28;20220;-62
2023/12/11 00:21:14;;;;;;;6.50;4.23;;;0.30;96.60;;;;;;6275990;28;20186;-62
2023/12/11 00:24:15;;;;;;;10.63;4.03;;;0.30;96.40;;;;;;6302714;28;20212;-62
2023/12/11 00:27:16;;;;;;;5.10;3.30;;;0.30;97.10;;;;;;6265727;28;20275;-62
2023/12/11 00:30:17;;;;;;;5.40;3.77;;;0.40;97.80;;;;;;6307600;28;20193;-62
2023/12/11 00:33:18;;;;;;;6.57;3.97;;;0.40;97.10;;;;;;6264899;28;20204;-62
2023/12/11 00:36:18;;;;;;;5.57;3.97;;;0.40;97.00;;;;;;6289428;28;20196;-62
2023/12/11 00:39:19;;;;;;;6.37;3.60;;;0.40;96.60;;;;;;6275494;28;20212;-62
2023/12/11 00:42:20;;;;;;;7.67;3.80;;;0.50;97.60;;;;;;6268508;28;20194;-62
2023/12/11 00:45:21;;;;;;;6.67;3.57;;;0.50;96.70;;;;;;6256425;28;20273;-62
2023/12/11 00:48:21;;;;;;;3.90;3.23;;;0.50;97.50;;;;;;6267505;28;20213;-62
2023/12/11 00:51:22;;;;;;;4.57;3.50;;;0.50;97.40;;;;;;6254993;28;20441;-62
2023/12/11 00:54:23;;;;;;;5.27;3.83;;;0.60;97.30;;;;;;6258909;28;20190;-62
2023/12/11 00:57:24;;;;;;;6.73;3.87;;;0.60;97.40;;;;;;6242494;28;20191;-62
2023/12/11 01:00:25;;;;;;;7.17;4.33;;;0.60;96.70;;;;;;6260687;28;20214;-62
2023/12/11 01:03:25;;;;;;;6.53;4.27;;;0.60;96.20;;;;;;6241765;28;20200;-62
2023/12/11 01:06:26;;;;;;;7.87;4.47;;;0.60;96.90;;;;;;6272734;28;20344;-62
2023/12/11 01:09:27;;;;;;;7.43;5.90;;;0.60;96.60;;;;;;6235681;28;20197;-62
2023/12/11 01:12:27;;;;;;;10.87;6.67;;;0.60;96.80;;;;;;6251383;28;20189;-62
2023/12/11 01:15:28;;;;;;;12.87;9.00;;;0.60;96.60;;;;;;6265379;28;20187;-62
2023/12/11 01:18:29;;;;;;;12.77;8.80;;;0.60;97.30;;;;;;6239167;28;20220;-62
2023/12/11 01:21:29;;;;;;;11.80;7.80;;;0.60;97.20;;;;;;6236182;28;20190;-62
2023/12/11 01:24:30;;;;;;;13.00;7.20;;;0.60;96.70;;;;;;6270148;28;20189;-62
2023/12/11 01:27:31;;;;;;;9.77;5.20;;;0.60;96.20;;;;;;6250012;28;20190;-63
2023/12/11 01:30:32;;;;;;;7.17;4.80;;;0.60;96.60;;;;;;6260528;28;20190;-62
2023/12/11 01:33:32;;;;;;;8.00;4.17;;;0.60;96.80;;;;;;6255356;28;20213;-62
2023/12/11 01:36:33;;;;;;;5.93;3.53;;;0.70;97.30;;;;;;6252796;28;20555;-62
2023/12/11 01:39:34;;;;;;;7.50;4.27;;;0.70;97.50;;;;;;6263648;28;20213;-62
2023/12/11 01:42:35;;;;;;;8.37;5.27;;;0.80;96.90;;;;;;6255750;28;20280;-62
2023/12/11 01:45:36;;;;;;;6.63;5.00;;;0.80;98.00;;;;;;6285750;28;20249;-62
2023/12/11 01:48:37;;;;;;;7.73;4.97;;;0.80;97.40;;;;;;6271204;28;20192;-62
2023/12/11 01:51:38;;;;;;;7.03;4.30;;;0.80;97.20;;;;;;6276692;28;20636;-62
2023/12/11 01:54:39;;;;;;;8.93;4.90;;;0.80;97.30;;;;;;6265862;28;20199;-62
2023/12/11 01:57:39;;;;;;;8.60;5.07;;;0.90;96.60;;;;;;6261724;28;20196;-62
2023/12/11 02:00:40;;;;;;;7.87;5.10;;;0.80;96.80;;;;;;6278633;28;20220;-62
2023/12/11 02:03:41;;;;;;;7.00;5.23;;;0.80;96.40;;;;;;6271738;28;20191;-62
2023/12/11 02:06:42;;;;;;;9.00;5.13;;;0.80;96.60;;;;;;6322690;28;20191;-62
2023/12/11 02:09:43;;;;;;;6.63;4.70;;;0.80;97.10;;;;;;6277665;28;20200;-62
2023/12/11 02:12:43;;;;;;;5.53;4.97;;;0.80;96.90;;;;;;6298582;28;20191;-62
2023/12/11 02:15:46;;;;;;;8.17;5.00;;;0.80;96.90;;;;;;6261634;28;20195;-62
2023/12/11 02:18:46;;;;;;;8.10;5.03;;;0.70;95.60;;;;;;6294685;28;20235;-62
2023/12/11 02:21:47;;;;;;;9.10;4.87;;;0.60;96.60;;;;;;6277300;28;20180;-62
2023/12/11 02:24:54;;;;;;;9.97;5.20;;;0.60;96.10;;;;;;6278673;28;20189;-62
2023/12/11 02:27:54;;;;;;;6.37;4.53;;;0.60;96.60;;;;;;6303394;28;20187;-62
2023/12/11 02:30:55;;;;;;;6.87;4.57;;;0.70;96.30;;;;;;6294506;28;20184;-62
2023/12/11 02:33:56;;;;;;;6.97;4.57;;;0.70;96.20;;;;;;6268844;28;20186;-62
2023/12/11 02:36:56;;;;;;;9.83;5.17;;;0.70;97.50;;;;;;6270922;28;20191;-62
2023/12/11 02:39:57;;;;;;;9.90;5.27;;;0.70;96.60;;;;;;6273650;28;20212;-62
2023/12/11 02:42:58;;;;;;;8.73;5.43;;;0.80;97.60;;;;;;6290057;28;20249;-62
2023/12/11 02:45:59;;;;;;;9.20;5.17;;;0.80;97.00;;;;;;6260537;28;20262;-62
2023/12/11 02:48:59;;;;;;;6.80;4.77;;;0.80;97.20;;;;;;6263192;28;20189;-62
2023/12/11 02:52:00;;;;;;;8.63;5.40;;;0.80;97.10;;;;;;6266600;28;20196;-62
2023/12/11 02:55:01;;;;;;;8.87;5.90;;;0.90;97.70;;;;;;6259714;28;20192;-62
2023/12/11 02:58:03;;;;;;;7.87;4.77;;;1.00;97.10;;;;;;6256783;28;20198;-62
2023/12/11 03:01:04;;;;;;;8.27;4.47;;;1.00;96.90;;;;;;6297935;28;20187;-62
2023/12/11 03:04:05;;;;;;;7.07;4.70;;;1.00;97.50;;;;;;6326450;28;20191;-62
2023/12/11 03:07:06;;;;;;;8.30;4.83;;;1.00;97.30;;;;;;6297668;28;20185;-62
2023/12/11 03:10:08;;;;;;;8.03;4.37;;;1.00;97.40;;;;;;6287487;28;20203;-62
2023/12/11 03:13:08;;;;;;;8.20;3.80;;;1.00;97.00;;;;;;6281383;28;20196;-62
2023/12/11 03:16:13;;;;;;;5.77;4.27;;;1.10;97.10;;;;;;6282964;28;20195;-62
2023/12/11 03:19:15;;;;;;;7.00;4.50;;;1.10;97.10;;;;;;6304901;28;20239;-62
2023/12/11 03:22:16;;;;;;;6.30;4.03;;;1.10;96.40;;;;;;6277118;28;20180;-62
2023/12/11 03:25:17;;;;;;;5.87;3.70;;;1.10;97.40;;;;;;6271927;28;20271;-62
2023/12/11 03:28:18;;;;;;;4.40;3.63;;;1.20;97.10;;;;;;6306473;28;20215;-62
2023/12/11 03:31:18;;;;;;;7.20;4.40;;;1.20;97.20;;;;;;6253672;28;20216;-62
2023/12/11 03:34:19;;;;;;;6.23;3.80;;;1.20;96.70;;;;;;6266322;28;20199;-62
2023/12/11 03:37:20;;;;;;;5.73;3.63;;;1.30;96.90;;;;;;6275017;28;20191;-62
2023/12/11 03:40:21;;;;;;;5.47;3.70;;;1.30;96.90;;;;;;6279647;28;20240;-62
2023/12/11 03:43:21;;;;;;;7.87;3.83;;;1.40;96.50;;;;;;6254350;28;20233;-62
2023/12/11 03:46:22;;;;;;;7.70;3.60;;;1.40;96.70;;;;;;6272965;28;20188;-62
2023/12/11 03:49:23;;;;;;;5.70;3.37;;;1.40;95.70;;;;;;6274819;28;20191;-62
2023/12/11 03:52:24;;;;;;;3.67;3.27;;;1.30;95.70;;;;;;6270557;28;20200;-62
2023/12/11 03:55:26;;;;;;;7.53;4.47;;;1.20;97.20;;;;;;6255199;28;20280;-62
2023/12/11 03:58:26;;;;;;;7.60;3.57;;;1.20;96.50;;;;;;6268336;28;20260;-62
2023/12/11 04:01:27;;;;;;;6.20;3.53;;;1.10;97.20;;;;;;6291476;28;20181;-62
2023/12/11 04:04:28;;;;;;;5.90;3.57;;;1.00;96.50;;;;;;6266735;28;20212;-62
2023/12/11 04:07:29;;;;;;;6.13;3.60;;;1.00;97.00;;;;;;6256562;28;20272;-62
2023/12/11 04:10:30;;;;;;;7.17;4.03;;;1.00;96.90;;;;;;6269653;28;20193;-62
2023/12/11 04:13:31;;;;;;;5.37;3.60;;;0.80;97.00;;;;;;6268931;28;20200;-62
2023/12/11 04:16:32;;;;;;;7.40;4.43;;;0.80;96.90;;;;;;6283229;28;20217;-62
2023/12/11 04:19:33;;;;;;;7.80;5.63;;;0.80;96.90;;;;;;6284580;28;20203;-62
2023/12/11 04:22:33;;;;;;;8.13;5.60;;;0.70;96.90;;;;;;6282278;28;20184;-62
2023/12/11 04:25:34;;;;;;;11.47;6.73;;;0.60;96.90;;;;;;6276580;28;20179;-62
2023/12/11 04:28:35;;;;;;;12.13;7.80;;;0.60;97.70;;;;;;6285522;28;20192;-62
2023/12/11 04:31:35;;;;;;;7.90;5.87;;;0.60;97.90;;;;;;6295661;28;20197;-62
2023/12/11 04:34:36;;;;;;;6.33;4.27;;;0.60;97.60;;;;;;6269590;28;20297;-62
2023/12/11 04:37:37;;;;;;;5.37;4.20;;;0.50;97.20;;;;;;6266656;28;20189;-62
2023/12/11 04:40:38;;;;;;;6.63;4.00;;;0.50;97.80;;;;;;6266516;28;20212;-62
2023/12/11 04:43:38;;;;;;;4.67;3.33;;;0.50;97.20;;;;;;6302923;28;20327;-62
2023/12/11 04:46:39;;;;;;;7.20;4.53;;;0.40;97.20;;;;;;6304794;28;20204;-62
2023/12/11 04:49:42;;;;;;;8.10;4.17;;;0.40;98.40;;;;;;6266614;28;20197;-62
2023/12/11 04:52:43;;;;;;;6.47;4.30;;;0.40;97.70;;;;;;6277378;28;20200;-62
2023/12/11 04:55:44;;;;;;;8.33;4.37;;;0.40;97.70;;;;;;6264541;28;20247;-62
2023/12/11 04:58:44;;;;;;;5.63;3.93;;;0.40;97.50;;;;;;6275579;28;20263;-62
2023/12/11 05:01:45;;;;;;;7.07;4.37;;;0.30;97.40;;;;;;6257477;28;20190;-62
2023/12/11 05:04:46;;;;;;;6.13;3.43;;;0.30;97.80;;;;;;6273155;28;20192;-62
2023/12/11 05:07:46;;;;;;;6.30;4.07;;;0.30;97.90;;;;;;6257627;28;20188;-62
2023/12/11 05:10:47;;;;;;;6.47;3.73;;;0.30;97.60;;;;;;6258155;28;20188;-62
2023/12/11 05:13:48;;;;;;;5.33;3.77;;;0.30;97.60;;;;;;6278289;28;20235;-62
2023/12/11 05:16:49;;;;;;;6.30;4.40;;;0.30;97.60;;;;;;6280763;28;20256;-62
2023/12/11 05:19:49;;;;;;;6.90;3.90;;;0.30;97.90;;;;;;6281206;28;20223;-62
2023/12/11 05:22:50;;;;;;;8.47;4.50;;;0.40;97.20;;;;;;6269244;28;20200;-62
2023/12/11 05:25:52;;;;;;;5.37;3.53;;;0.40;97.80;;;;;;6287653;28;20194;-62
2023/12/11 05:28:54;;;;;;;7.63;3.87;;;0.50;98.40;;;;;;6285228;28;20189;-63
2023/12/11 05:31:55;;;;;;;7.60;3.73;;;0.50;97.90;;;;;;6268332;28;20203;-61
2023/12/11 05:34:55;;;;;;;5.33;4.10;;;0.60;97.90;;;;;;6266611;28;20204;-62
2023/12/11 05:37:59;;;;;;;7.67;5.83;;;0.60;96.90;;;;;;6274794;28;20196;-62
2023/12/11 05:41:00;;;;;;;7.30;5.60;;;0.60;97.50;;;;;;6293980;28;20190;-62
2023/12/11 05:44:01;;;;;;;8.13;4.53;;;0.60;97.50;;;;;;6302973;28;20231;-62
2023/12/11 05:47:01;;;;;;;8.67;3.60;;;0.60;97.30;;;;;;6291343;28;20200;-62
2023/12/11 05:50:02;;;;;;;5.93;4.30;;;0.60;97.60;;;;;;6269071;28;20191;-62
2023/12/11 05:53:03;;;;;;;6.60;3.93;;;0.60;96.90;;;;;;6271676;28;20194;-63
2023/12/11 05:56:05;;;;;;;6.73;3.63;;;0.60;96.60;;;;;;6286845;28;20188;-64
2023/12/11 05:59:06;;;;;;;7.77;3.80;;;0.60;96.70;;;;;;6275848;28;20227;-61
2023/12/11 06:02:06;;;;;;;5.80;3.53;;;0.70;96.20;;;;;;6263132;28;20183;-62
2023/12/11 06:05:08;;;;;;;5.13;3.37;;;0.80;96.60;;;;;;6282841;28;20191;-62
2023/12/11 06:08:09;;;;;;;7.20;4.00;;;0.80;96.40;;;;;;6278779;28;20271;-62
2023/12/11 06:11:11;;;;;;;5.37;4.00;;;0.80;96.80;;;;;;6279025;28;20284;-62
2023/12/11 06:14:11;;;;;;;6.33;3.87;;;0.70;96.60;;;;;;6266698;28;20176;-62
2023/12/11 06:17:12;;;;;;;7.07;4.13;;;0.60;96.10;;;;;;6310845;28;21027;-62
2023/12/11 06:20:13;;;;;;;5.37;3.83;;;0.60;96.60;;;;;;6297962;28;20208;-62
2023/12/11 06:23:13;;;;;;;6.20;4.00;;;0.60;96.60;;;;;;6287031;28;20181;-62
2023/12/11 06:26:44;;;;;;;6.57;3.33;;;0.60;96.50;;;;;;6268749;28;20192;-62
2023/12/11 06:29:45;;;;;;;5.00;2.80;;;0.60;96.80;;;;;;6268567;28;20297;-62
2023/12/11 06:32:46;;;;;;;4.40;2.67;;;0.60;97.60;;;;;;6314580;28;20186;-62
2023/12/11 06:35:46;;;;;;;4.37;3.33;;;0.70;97.80;;;;;;6270070;28;20276;-62
2023/12/11 06:38:51;;;;;;;4.73;3.50;;;0.70;97.70;;;;;;6260913;28;20292;-62
2023/12/11 06:41:52;;;;;;;5.43;3.50;;;0.70;96.50;;;;;;6270136;28;20186;-62
2023/12/11 06:44:53;;;;;;;5.93;3.47;;;0.70;96.60;;;;;;6275526;28;20241;-62
2023/12/11 06:47:54;;;;;;;5.67;3.57;;;0.80;96.80;;;;;;6303922;28;20188;-62
2023/12/11 06:50:54;;;;;;;5.23;2.90;;;0.80;96.60;;;;;;6268687;28;20190;-62
2023/12/11 06:53:58;;;;;;;6.13;3.40;;;0.80;96.90;;;;;;6258610;28;20188;-61
2023/12/11 06:56:59;;;;;;;3.77;2.70;;;0.80;96.50;;;;;;6301924;28;20271;-61
2023/12/11 07:00:02;;;;;;;3.63;2.53;;;0.80;96.70;;;;;;6275108;28;20212;-61
2023/12/11 07:03:03;;;;;;;3.87;3.00;;;0.80;97.00;;;;;;6269561;28;20184;-61
2023/12/11 07:06:04;;;;;;;6.00;3.93;;;0.80;95.90;;;;;;6269583;28;20191;-61
2023/12/11 07:09:04;;;;;;;2.67;2.40;;;0.80;95.90;;;;;;6278660;28;20238;-61
2023/12/11 07:12:06;;;;;;;3.83;2.90;;;0.70;95.70;;;;;;6250331;28;20185;-61
2023/12/11 07:15:07;;;;;;;4.93;2.97;;;0.80;96.50;;;;;;6285758;28;20190;-61
2023/12/11 07:18:10;;;;;;;5.80;3.30;;;0.80;96.30;;;;;;6278044;28;20185;-61
2023/12/11 07:21:11;;;;;;;5.33;3.30;;;0.80;96.60;;;;;;6278532;28;20219;-61
2023/12/11 07:24:12;;;;;;;4.83;3.33;;;0.80;96.20;;;;;;6266274;28;20212;-61
2023/12/11 07:27:13;;;;;;;5.10;3.20;;;0.80;96.00;;;;;;6277756;28;20177;-61
2023/12/11 07:30:14;;;;;;;4.23;2.90;;;0.80;95.30;;;;;;6254822;28;20203;-61
2023/12/11 07:33:15;;;;;;;4.93;2.90;;;0.80;95.80;;;;;;6266967;28;20189;-61
2023/12/11 07:36:15;;;;;;;5.80;3.50;;;0.80;96.60;;;;;;6276253;28;20218;-61
2023/12/11 07:39:16;;;;;;;4.30;2.90;;;0.80;96.60;;;;;;6278841;28;20208;-61
2023/12/11 07:42:17;;;;;;;6.37;3.70;;;0.80;96.60;;;;;;6269067;28;20241;-61
2023/12/11 07:45:18;;;;;;;7.53;4.83;;;0.80;95.90;;;;;;6252686;28;20241;-61
2023/12/11 07:48:19;;;;;;;6.77;3.77;;;0.80;95.40;;;;;;6299577;28;20195;-61
2023/12/11 07:51:20;;;;;;;11.13;4.43;;;0.80;96.40;;;;;;6249721;28;20191;-61
2023/12/11 07:54:21;;;;;;;6.80;4.10;;;0.80;96.40;;;;;;6295669;28;20280;-61
2023/12/11 07:57:25;;;;;;;5.57;3.23;;;0.80;96.90;;;;;;6284265;28;20250;-61
2023/12/11 08:00:25;;;;;;;6.73;4.00;;;0.80;96.90;;;;;;6304763;28;20204;-61
2023/12/11 08:03:26;;;;;;;7.97;4.73;;;0.90;96.60;;;;;;6291893;28;20238;-61
2023/12/11 08:06:27;;;;;;;16.10;5.90;;;0.90;96.90;;;;;;6279012;28;20192;-61
2023/12/11 08:09:28;;;;;;;10.00;5.73;;;0.90;96.30;;;;;;6311285;28;20205;-61
2023/12/11 08:12:30;;;;;;;8.47;5.30;;;1.00;96.70;;;;;;6270362;28;20191;-61
2023/12/11 08:15:31;;;;;;;11.93;7.67;;;1.00;96.60;;;;;;6273232;28;20295;-61
2023/12/11 08:18:32;;;;;;;16.70;8.00;;;1.00;96.60;;;;;;6309382;28;20207;-61
2023/12/11 08:21:32;;;;;;;13.73;9.37;;;1.00;96.30;;;;;;6274017;28;20191;-61
2023/12/11 08:24:33;;;;;;;16.23;12.50;;;1.00;96.90;;;;;;6271787;28;20192;-61
2023/12/11 08:27:34;;;;;;;22.03;14.03;;;1.00;96.20;;;;;;6280621;28;20199;-61
2023/12/11 08:30:35;;;;;;;21.10;14.30;;;1.10;96.50;;;;;;6290630;28;20189;-61
2023/12/11 08:33:36;;;;;;;21.33;16.00;;;1.10;96.50;;;;;;6294699;28;20191;-61
2023/12/11 08:36:37;;;;;;;20.47;14.57;;;1.10;97.00;;;;;;6281931;28;20200;-61
2023/12/11 08:39:38;;;;;;;23.57;15.10;;;1.10;96.60;;;;;;6280025;28;20207;-61
2023/12/11 08:42:39;;;;;;;21.73;14.73;;;1.10;96.70;;;;;;6269443;28;20186;-62
2023/12/11 08:45:40;;;;;;;21.23;14.63;;;1.10;96.50;;;;;;6274927;28;20190;-62
2023/12/11 08:48:43;;;;;;;22.20;14.50;;;1.20;96.40;;;;;;6309242;28;20196;-62
2023/12/11 08:51:44;;;;;;;21.33;14.77;;;1.20;96.10;;;;;;6283822;28;20195;-62
2023/12/11 08:54:45;;;;;;;24.33;15.00;;;1.20;96.20;;;;;;6282250;28;20201;-62
2023/12/11 08:57:46;;;;;;;20.17;12.23;;;1.30;96.50;;;;;;6290363;28;20263;-62
2023/12/11 09:00:47;;;;;;;16.47;11.33;;;1.40;97.10;;;;;;6282461;28;20208;-62
2023/12/11 09:03:48;;;;;;;18.77;12.30;;;1.40;97.20;;;;;;6273051;28;20182;-62
2023/12/11 09:06:49;;;;;;;19.73;13.00;;;1.40;97.00;;;;;;6288054;28;20191;-62
2023/12/11 09:09:49;;;;;;;22.87;13.00;;;1.50;97.00;;;;;;6303272;28;20189;-62
2023/12/11 09:12:53;;;;;;;21.47;12.47;;;;;;;;;;6290177;28;20197;-62
2023/12/11 09:15:54;;;;;;;16.20;12.10;;;;;;;;;;6291658;28;20271;-62
2023/12/11 09:18:55;;;;;;;19.57;12.67;;;;;;;;;;6293598;28;20209;-62
2023/12/11 09:21:57;;;;;;;18.17;12.33;;;;;;;;;;6288811;28;20200;-62
2023/12/11 09:24:58;;;;;;;21.73;10.63;;;;;;;;;;6307112;28;20184;-62
2023/12/11 09:27:59;;;;;;;13.23;8.83;;;;;;;;;;6281123;28;20193;-62
2023/12/11 09:31:00;;;;;;;13.17;8.80;;;;;;;;;;6288801;28;20212;-62
2023/12/11 09:34:01;;;;;;;11.83;8.47;;;;;;;;;;6276124;28;20199;-62
2023/12/11 09:37:02;;;;;;;12.23;8.47;;;;;;;;;;6289670;28;20193;-62
2023/12/11 09:40:05;;;;;;;13.27;9.00;;;;;;;;;;6286058;28;20231;-62
2023/12/11 09:43:06;;;;;;;10.73;7.97;;;;;;;;;;6299498;28;20228;-62
2023/12/11 09:46:09;;;;;;;11.07;7.83;;;;;;;;;;6306093;28;20180;-62
2023/12/11 09:49:11;;;;;;;11.23;8.00;;;;;;;;;;6299663;28;20193;-62
2023/12/11 09:52:13;;;;;;;6.60;5.93;;;;;;;;;;6319912;28;20184;-62
2023/12/11 09:55:15;;;;;;;9.13;6.63;;;;;;;;;;6315638;28;20244;-62
2023/12/11 09:58:16;;;;;;;11.37;7.40;;;;;;;;;;6313217;28;20197;-62
2023/12/11 10:01:18;;;;;;;12.97;7.97;;;;;;;;;;6277449;28;20192;-62
2023/12/11 10:04:19;;;;;;;9.37;6.37;;;;;;;;;;6321088;28;20181;-62
2023/12/11 10:07:20;;;;;;;10.47;7.33;;;;;;;;;;6308744;28;20198;-62
2023/12/11 10:10:26;;;;;;;8.63;6.00;;;;;;;;;;6311577;28;20207;-62
2023/12/11 10:13:28;;;;;;;14.87;7.40;;;;;;;;;;6320423;28;20193;-62
2023/12/11 10:16:31;;;;;;;9.63;6.20;;;1.70;96.80;;;;;;6287298;28;20305;-62
2023/12/11 10:19:35;;;;;;;10.87;6.33;;;3.10;92.30;;;;;;6313539;28;20235;-62
2023/12/11 10:22:36;;;;;;;10.53;6.23;;;3.20;91.50;;;;;;6272755;28;20240;-62
2023/12/11 10:25:37;;;;;;;9.17;5.87;;;;;;;;;;6274045;28;20187;-62
2023/12/11 10:28:38;;;;;;;6.50;5.53;;;;;;;;;;6286255;28;20326;-62
2023/12/11 10:31:39;;;;;;;7.63;5.13;;;;;;;;;;6266808;28;20197;-62
2023/12/11 10:34:45;;;;;;;7.63;5.47;;;;;;;;;;6268573;28;20196;-62
2023/12/11 10:37:46;;;;;;;9.40;5.97;;;;;;;;;;6293364;28;20196;-62
2023/12/11 10:40:49;;;;;;;9.73;6.20;;;;;;;;;;6284385;28;20208;-62
2023/12/11 10:43:50;;;;;;;6.83;5.37;;;;;;;;;;6321158;28;20235;-62
2023/12/11 10:46:54;;;;;;;7.43;5.57;;;;;;;;;;6276988;28;20188;-62
2023/12/11 10:50:00;;;;;;;6.00;4.73;;;;;;;;;;6304241;28;20195;-62
2023/12/11 10:53:01;;;;;;;7.60;5.50;;;3.30;91.90;;;;;;6291776;28;20193;-62
2023/12/11 10:56:03;;;;;;;7.50;5.23;;;4.80;87.40;;;;;;6290416;28;20199;-62
2023/12/11 10:59:04;;;;;;;7.67;5.00;;;4.90;87.80;;;;;;6287769;28;20212;-62
2023/12/11 11:02:07;;;;;;;7.77;5.27;;;5.00;86.50;;;;;;6286368;28;20204;-62
2023/12/11 11:05:08;;;;;;;7.47;5.00;;;5.00;85.70;;;;;;6318981;28;20188;-62
2023/12/11 11:08:21;;;;;;;5.40;4.13;;;5.00;85.90;;;;;;6284331;28;20180;-62
2023/12/11 11:11:27;;;;;;;5.60;4.60;;;5.10;87.00;;;;;;6304092;28;20189;-62
2023/12/11 11:14:43;;;;;;;6.73;4.67;;;5.20;87.00;;;;;;6291852;28;20211;-62
2023/12/11 11:18:09;;;;;;;7.17;4.93;;;;;;;;;;6300229;28;20185;-62
2023/12/11 11:21:12;;;;;;;6.00;4.60;;;5.30;87.00;;;;;;6306688;28;20239;-62
2023/12/11 11:24:26;;;;;;;5.87;4.80;;;5.50;84.70;;;;;;6288405;28;20268;-62
2023/12/11 11:27:43;;;;;;;8.33;5.00;;;5.50;85.50;;;;;;6280801;28;20188;-62
2023/12/11 11:30:44;;;;;;;5.80;4.10;;;5.60;84.90;;;;;;6318247;28;20189;-62
2023/12/11 11:33:47;;;;;;;7.63;5.03;;;5.70;85.50;;;;;;6316920;28;20245;-62
2023/12/11 11:36:47;;;;;;;7.33;5.47;;;5.80;83.70;;;;;;6299700;28;20196;-62
2023/12/11 11:40:02;;;;;;;6.87;4.53;;;5.90;84.00;;;;;;6270900;28;20221;-62
2023/12/11 11:43:07;;;;;;;7.53;4.47;;;5.90;84.80;;;;;;6308905;28;20229;-61
2023/12/11 11:46:08;;;;;;;5.57;4.30;;;6.00;84.60;;;;;;6309803;28;20177;-61
2023/12/11 11:49:09;;;;;;;6.47;4.00;;;;;;;;;;6261668;28;20214;-61
2023/12/11 11:52:11;;;;;;;5.17;4.17;;;6.10;84.20;;;;;;6301482;28;20200;-61
2023/12/11 11:55:23;;;;;;;5.97;3.90;;;6.20;83.50;;;;;;6281646;28;20375;-61
2023/12/11 11:58:24;;;;;;;6.00;4.47;;;6.30;83.40;;;;;;6306456;28;20251;-61
2023/12/11 12:01:25;;;;;;;6.67;4.77;;;6.30;82.90;;;;;;6291000;28;20180;-61
2023/12/11 12:04:30;;;;;;;10.73;6.37;;;6.30;83.20;;;;;;6273469;28;20317;-61
2023/12/11 12:07:30;;;;;;;23.37;16.27;;;6.30;81.90;;;;;;6302570;28;20184;-61
2023/12/11 12:10:31;;;;;;;48.10;33.13;;;6.30;82.00;;;;;;6298676;28;20268;-62
2023/12/11 12:13:36;;;;;;;24.77;18.23;;;6.30;81.20;;;;;;6288401;28;20193;-62
2023/12/11 12:16:37;;;;;;;21.30;14.83;;;6.20;83.20;;;;;;6300074;28;20193;-61
2023/12/11 12:19:38;;;;;;;15.60;11.03;;;6.10;83.20;;;;;;6280843;28;20213;-62
2023/12/11 12:22:39;;;;;;;9.03;6.83;;;6.00;83.70;;;;;;6295100;28;20241;-62
2023/12/11 12:25:39;;;;;;;11.23;7.17;;;6.00;82.80;;;;;;6307780;28;20184;-61
2023/12/11 12:28:41;;;;;;;7.60;5.47;;;5.90;83.10;;;;;;6280386;28;20196;-62
2023/12/11 12:31:42;;;;;;;7.80;5.70;;;5.80;82.90;;;;;;6281264;28;20238;-62
2023/12/11 12:34:46;;;;;;;8.50;5.53;;;5.70;84.00;;;;;;6290750;28;20199;-61
2023/12/11 12:37:49;;;;;;;8.37;5.53;;;5.70;84.00;;;;;;6306672;28;20276;-61
2023/12/11 12:40:53;;;;;;;5.93;4.60;;;5.60;84.00;;;;;;6299125;28;20205;-61
2023/12/11 12:44:01;;;;;;;8.83;6.00;;;5.50;85.10;;;;;;6293940;28;20262;-61
2023/12/11 12:47:02;;;;;;;7.17;4.87;;;5.50;85.30;;;;;;6303951;28;20198;-61
2023/12/11 12:50:06;;;;;;;6.03;4.30;;;5.50;85.50;;;;;;6273274;28;20205;-61
2023/12/11 12:53:10;;;;;;;8.03;4.67;;;5.50;85.70;;;;;;6270248;28;20201;-61
2023/12/11 12:56:18;;;;;;;10.43;5.50;;;5.50;84.90;;;;;;6303405;28;20694;-61
2023/12/11 12:59:20;;;;;;;5.27;4.07;;;5.50;84.50;;;;;;6259791;28;20217;-61
2023/12/11 13:02:20;;;;;;;4.73;3.67;;;5.60;84.30;;;;;;6289110;28;20189;-61
2023/12/11 13:05:21;;;;;;;6.17;4.20;;;5.60;84.20;;;;;;6299556;28;20219;-61
2023/12/11 13:08:22;;;;;;;6.57;4.40;;;5.70;85.00;;;;;;6307856;28;20203;-61
2023/12/11 13:11:38;;;;;;;5.90;4.77;;;5.70;83.50;;;;;;6273185;28;20210;-61
2023/12/11 13:14:38;;;;;;;6.47;3.80;;;5.70;84.00;;;;;;6300191;28;20189;-61
2023/12/11 13:17:39;;;;;;;7.47;4.10;;;5.70;84.40;;;;;;6288997;28;20195;-61
2023/12/11 13:20:40;;;;;;;8.87;5.77;;;5.70;84.70;;;;;;6271236;28;20223;-61
2023/12/11 13:23:40;;;;;;;7.47;5.07;;;5.60;83.40;;;;;;6276709;28;20193;-61
2023/12/11 13:26:41;;;;;;;7.67;5.43;;;5.50;84.80;;;;;;6263511;28;20192;-62
2023/12/11 13:29:42;;;;;;;6.60;5.53;;;5.50;85.00;;;;;;6268564;28;20200;-61
2023/12/11 13:32:43;;;;;;;10.40;7.00;;;5.50;85.00;;;;;;6287178;28;20232;-61
2023/12/11 13:35:44;;;;;;;13.20;7.53;;;5.50;84.30;;;;;;6290664;28;20228;-61
2023/12/11 13:38:45;;;;;;;11.50;7.20;;;5.60;85.30;;;;;;6265939;28;20215;-61
2023/12/11 13:41:46;;;;;;;7.70;5.67;;;5.60;85.00;;;;;;6297412;28;20188;-61
2023/12/11 13:44:47;;;;;;;7.77;5.30;;;5.70;85.00;;;;;;6285982;28;20246;-61
2023/12/11 13:47:47;;;;;;;5.23;4.73;;;5.80;85.50;;;;;;6263220;28;20186;-61
2023/12/11 13:50:49;;;;;;;6.73;5.20;;;5.80;85.70;;;;;;6272452;28;20245;-61
2023/12/11 13:53:49;;;;;;;10.63;5.87;;;5.90;85.20;;;;;;6265142;28;20227;-61
2023/12/11 13:56:50;;;;;;;7.20;5.63;;;5.80;84.10;;;;;;6282860;28;20204;-61
2023/12/11 13:59:51;;;;;;;8.93;6.50;;;5.70;83.90;;;;;;6274251;28;20208;-61
2023/12/11 14:02:51;;;;;;;11.03;6.73;;;5.70;84.40;;;;;;6273986;28;20189;-61
2023/12/11 14:05:52;;;;;;;9.47;5.67;;;5.60;83.60;;;;;;6264461;28;20280;-61
2023/12/11 14:08:53;;;;;;;6.00;4.57;;;5.70;83.60;;;;;;6252393;28;20193;-61
2023/12/11 14:11:54;;;;;;;5.73;4.20;;;5.80;83.50;;;;;;6279667;28;20245;-60
2023/12/11 14:14:54;;;;;;;8.13;4.43;;;5.90;82.90;;;;;;6283839;28;20196;-61
2023/12/11 14:17:55;;;;;;;8.13;4.90;;;5.90;82.20;;;;;;6278844;28;20255;-61
2023/12/11 14:20:56;;;;;;;9.07;5.23;;;5.80;82.60;;;;;;6279088;28;20217;-61
2023/12/11 14:23:56;;;;;;;8.23;5.27;;;5.70;82.70;;;;;;6264079;28;20206;-61
2023/12/11 14:26:57;;;;;;;7.83;6.07;;;5.50;82.90;;;;;;6266799;28;20185;-61
2023/12/11 14:29:58;;;;;;;15.03;10.70;;;5.50;83.50;;;;;;6264789;28;20228;-61
2023/12/11 14:32:59;;;;;;;16.90;12.00;;;5.30;83.70;;;;;;6286710;28;20187;-61
2023/12/11 14:36:02;;;;;;;18.07;12.57;;;5.30;84.70;;;;;;6273379;28;20188;-61
2023/12/11 14:39:02;;;;;;;13.60;10.97;;;5.10;83.90;;;;;;6296402;28;20204;-62
2023/12/11 14:42:03;;;;;;;13.87;9.33;;;5.00;84.70;;;;;;6275354;28;20196;-61
2023/12/11 14:45:06;;;;;;;12.13;9.20;;;5.00;85.10;;;;;;6282327;28;20233;-63
2023/12/11 14:48:07;;;;;;;15.30;8.57;;;4.90;85.70;;;;;;6280296;28;20195;-62
2023/12/11 14:51:08;;;;;;;9.83;7.23;;;4.90;86.00;;;;;;6283070;28;20184;-61
2023/12/11 14:54:08;;;;;;;8.87;6.30;;;4.80;86.00;;;;;;6270990;28;20185;-62
2023/12/11 14:57:09;;;;;;;9.40;6.53;;;4.70;86.70;;;;;;6272765;28;20190;-62
2023/12/11 15:00:11;;;;;;;9.13;6.40;;;4.70;86.70;;;;;;6302790;28;20207;-62
2023/12/11 15:03:11;;;;;;;9.77;6.97;;;4.60;86.70;;;;;;6272378;28;20185;-61
2023/12/11 15:06:12;;;;;;;10.87;6.87;;;4.50;86.80;;;;;;6275720;28;20236;-61
2023/12/11 15:09:14;;;;;;;10.27;6.50;;;4.50;86.50;;;;;;6269388;28;20189;-61
2023/12/11 15:12:15;;;;;;;9.70;7.00;;;4.40;87.70;;;;;;6292490;28;20236;-61
2023/12/11 15:15:16;;;;;;;10.27;6.27;;;4.40;87.10;;;;;;6299097;28;20206;-61
2023/12/11 15:18:17;;;;;;;8.20;5.90;;;4.30;87.10;;;;;;6276490;28;20196;-61
2023/12/11 15:21:18;;;;;;;8.03;5.77;;;4.30;87.30;;;;;;6273296;28;20280;-61
2023/12/11 15:24:19;;;;;;;8.80;5.77;;;4.20;87.70;;;;;;6276340;28;20227;-63
2023/12/11 15:27:20;;;;;;;8.13;6.07;;;4.20;88.10;;;;;;6282879;28;20196;-63
2023/12/11 15:30:23;;;;;;;8.75;6.65;;;4.10;88.00;;;;;;6272948;28;20745;-62
2023/12/11 15:33:23;;;;;;;8.37;5.97;;;4.10;88.90;;;;;;6277657;28;20297;-61
2023/12/11 15:36:24;;;;;;;8.37;5.73;;;4.10;88.40;;;;;;6270434;28;20203;-61
2023/12/11 15:39:25;;;;;;;8.63;5.13;;;4.10;89.10;;;;;;6265086;28;20200;-61
2023/12/11 15:42:26;;;;;;;7.40;4.90;;;4.20;89.00;;;;;;6288764;28;20195;-61
2023/12/11 15:45:26;;;;;;;7.20;6.10;;;4.30;88.70;;;;;;6261982;28;20231;-61
2023/12/11 15:48:27;;;;;;;13.90;9.07;;;4.30;88.90;;;;;;6275593;28;20188;-61
2023/12/11 15:51:29;;;;;;;12.30;8.23;;;4.30;88.50;;;;;;6274005;28;20196;-61
2023/12/11 15:54:29;;;;;;;12.60;7.33;;;4.30;88.70;;;;;;6287824;28;20208;-61
2023/12/11 15:57:31;;;;;;;12.03;8.00;;;4.30;88.60;;;;;;6257375;28;20261;-61
2023/12/11 16:00:32;;;;;;;11.17;7.43;;;4.20;88.40;;;;;;6261054;28;20209;-61
2023/12/11 16:03:33;;;;;;;17.10;10.90;;;4.20;88.50;;;;;;6265251;28;20215;-61